Airfield :
LOGIN :

Register | Disclaimer

   EN    FR    IT 

 










Legend :    VFR   Marginal VFR   IFR   Intensive IFR   Very Intensive IFR
Visi :
Ceiling :
>= 8 km
>= 3000ft
5 to 8 km
1000 to 3000 ft
1500m to 5 km
500 to 1000 ft
800 to 1500m
200 to 500 ft
< 800m
< 200 ft
Symbols :   Thunderstorms  Fog  Heavy snow  Heavy precipitations  Wind > 20 kt
SIGMETs :     Misc.  Thunderstorms  Icing  Turbulence  Mountain Waves  Volcanic Ashes






- Airport Elevation : 20 ft


EBFN - Koksijde

CURRENT METAR :
  • 162355Z AUTO 24024KT 9000 BKN036/// 08/03 Q1006 BLU

EXPIRED METARs :
  • 162325Z AUTO 24021KT 8000 BKN035/// BKN069/// 09/04 Q1005 BLU
  • 162255Z AUTO 24019KT 8000 BKN034/// 09/05 Q1005 BLU
  • 162225Z AUTO 25022G33KT 9000 BKN031/// 09/04 Q1005 BLU
  • 162155Z AUTO 24020G31KT 9000 -RA BKN031/// BKN250/// 09/06 Q1004 BLU
  • 162153Z AUTO 24020KT 4300 RA BKN031/// BKN250/// 09/06 Q1004 GRN
  • 162125Z AUTO 24023G34KT 9999 FEW022/// BKN170/// 09/06 Q1004 BLU

TAF TAF EBFN
Valid from the 16 at 19:00 until the 17 at 07:00 UTC


161541Z 1619/1707 24020G35KT 9999 BKN040
BECMG 1704/1706 23015G25KT BKN020



MET'MAP, your aeronautical weather chart ! - Copyright ORBIFLY December 2007 - Disclaimer

ORBIFLY MET'MAP TEAM :

Programming & Development : Alexandra Zaïnal
Concept & original design : Baudouin d'Aumeries
Assistance for programming : Marc-Olivier Méhu
Technical & hardware support : Manuel Goepfert

Contact : metmap@orbifly.com




SOURCES & CREDITS :

   NOAA